createdAt,value
2019-04-10T00:00:51.092Z,40.13
2019-04-10T00:03:27.777Z,40.73
2019-04-10T00:05:52.194Z,40.47
2019-04-10T00:08:21.874Z,39.57
2019-04-10T00:10:52.192Z,41.13
2019-04-10T00:13:22.616Z,40.60
2019-04-10T00:15:52.869Z,41.13
2019-04-10T00:18:22.501Z,41.67
2019-04-10T00:20:53.115Z,40.73
2019-04-10T00:23:22.898Z,42.57
2019-04-10T00:25:52.999Z,40.90
2019-04-10T00:28:23.438Z,40.53
2019-04-10T00:30:53.596Z,42.97
2019-04-10T00:33:23.365Z,42.47
2019-04-10T00:35:53.898Z,41.03
2019-04-10T00:38:24.044Z,40.60
2019-04-10T00:40:53.735Z,41.10
2019-04-10T00:43:24.508Z,42.03
2019-04-10T00:45:54.241Z,40.47
2019-04-10T00:48:24.011Z,41.33
2019-04-10T00:50:53.767Z,41.03
2019-04-10T00:53:23.334Z,40.33
2019-04-10T00:55:52.858Z,40.20
2019-04-10T00:58:22.512Z,40.83
2019-04-10T01:00:52.189Z,40.23
2019-04-10T01:03:40.084Z,41.47
2019-04-10T01:06:09.680Z,43.00
2019-04-10T01:08:40.456Z,41.73
2019-04-10T01:11:10.703Z,42.00
2019-04-10T01:13:41.101Z,41.97
2019-04-10T01:16:11.330Z,40.63
2019-04-10T01:18:41.592Z,41.70
2019-04-10T01:21:12.407Z,40.73
2019-04-10T01:23:41.946Z,41.73
2019-04-10T01:26:11.429Z,41.00
2019-04-10T01:28:41.139Z,42.13
2019-04-10T01:31:10.892Z,41.77
2019-04-10T01:33:40.948Z,41.17
2019-04-10T01:36:11.026Z,41.03
2019-04-10T01:38:40.540Z,42.30
2019-04-10T01:41:10.136Z,42.63
2019-04-10T01:43:39.699Z,40.63
2019-04-10T01:46:10.138Z,41.40
2019-04-10T01:48:39.862Z,42.00
2019-04-10T01:51:09.292Z,41.47
2019-04-10T01:53:38.862Z,42.37
2019-04-10T01:56:21.236Z,42.10
2019-04-10T01:58:41.324Z,41.47
2019-04-10T02:01:24.165Z,42.50
2019-04-10T02:03:54.280Z,42.37
2019-04-10T02:06:23.914Z,40.60
2019-04-10T02:08:54.237Z,42.13
2019-04-10T02:11:23.997Z,41.93
2019-04-10T02:13:54.004Z,41.77
2019-04-10T02:16:24.540Z,41.37
2019-04-10T02:18:55.047Z,40.40
2019-04-10T02:21:25.430Z,40.50
2019-04-10T02:23:55.076Z,39.53
2019-04-10T02:26:25.523Z,41.07
2019-04-10T02:28:55.591Z,39.07
2019-04-10T02:31:26.434Z,41.80
2019-04-10T02:33:58.031Z,40.87
2019-04-10T02:36:29.165Z,41.57
2019-04-10T02:39:10.075Z,43.07
2019-04-10T02:41:30.044Z,41.07
2019-04-10T02:44:00.001Z,41.43
2019-04-10T02:46:31.278Z,39.90
2019-04-10T02:49:00.999Z,40.60
2019-04-10T02:51:30.719Z,40.00
2019-04-10T02:54:00.525Z,40.37
2019-04-10T02:56:30.841Z,41.97
2019-04-10T02:59:00.718Z,41.80
2019-04-10T03:01:31.571Z,40.17
2019-04-10T03:04:01.517Z,40.83
2019-04-10T03:06:31.300Z,40.20
2019-04-10T03:09:14.721Z,40.17
2019-04-10T03:11:33.028Z,40.63
2019-04-10T03:14:04.495Z,40.00
2019-04-10T03:16:33.903Z,41.17
2019-04-10T03:19:03.410Z,41.17
2019-04-10T03:21:33.327Z,41.87
2019-04-10T03:24:03.918Z,40.07
2019-04-10T03:26:33.996Z,41.00
2019-04-10T03:29:03.560Z,39.73
2019-04-10T03:31:34.434Z,42.27
2019-04-10T03:34:22.649Z,42.00
2019-04-10T03:36:53.781Z,41.07
2019-04-10T03:39:23.693Z,42.03
2019-04-10T03:41:53.315Z,39.93
2019-04-10T03:44:22.936Z,43.43
2019-04-10T03:46:53.787Z,41.57
2019-04-10T03:49:23.560Z,41.00
2019-04-10T03:51:53.111Z,43.67
2019-04-10T03:54:22.943Z,41.33
2019-04-10T03:56:52.717Z,42.63
2019-04-10T03:59:22.410Z,42.37
2019-04-10T04:01:52.203Z,41.63
2019-04-10T04:04:21.783Z,43.30
2019-04-10T04:06:52.270Z,43.13
2019-04-10T04:09:21.888Z,43.53
2019-04-10T04:11:51.423Z,43.20
2019-04-10T04:14:21.986Z,40.60
2019-04-10T04:16:51.607Z,42.67
2019-04-10T04:19:22.035Z,43.13
2019-04-10T04:21:52.361Z,44.57
2019-04-10T04:24:25.525Z,43.50
2019-04-10T04:26:57.244Z,44.53
2019-04-10T04:29:27.068Z,42.47
2019-04-10T04:31:56.990Z,45.10
2019-04-10T04:34:27.212Z,44.77
2019-04-10T04:36:58.099Z,43.30
2019-04-10T04:39:29.714Z,43.50
2019-04-10T04:41:59.001Z,43.17
2019-04-10T04:44:29.220Z,44.53
2019-04-10T04:46:59.196Z,43.57
2019-04-10T04:49:28.753Z,44.17
2019-04-10T04:51:58.305Z,44.97
2019-04-10T04:54:28.909Z,46.73
2019-04-10T04:56:58.604Z,44.87
2019-04-10T04:59:28.182Z,46.00
2019-04-10T05:01:57.697Z,44.83
2019-04-10T05:04:27.229Z,46.03
2019-04-10T05:06:57.746Z,45.93
2019-04-10T05:09:33.782Z,45.43
2019-04-10T05:11:58.614Z,44.77
2019-04-10T05:14:29.383Z,46.73
2019-04-10T05:16:59.545Z,44.73
2019-04-10T05:19:29.740Z,45.87
2019-04-10T05:21:59.543Z,44.93
2019-04-10T05:25:00.665Z,43.90
2019-04-10T05:27:39.268Z,44.43
2019-04-10T05:30:29.472Z,45.63
2019-04-10T05:33:10.603Z,44.80
2019-04-10T05:35:52.879Z,45.63
2019-04-10T05:38:34.190Z,45.47
2019-04-10T05:41:15.669Z,43.73
2019-04-10T05:43:58.532Z,45.00
2019-04-10T05:46:40.861Z,43.77
2019-04-10T05:49:22.577Z,46.43
2019-04-10T05:52:04.318Z,45.10
2019-04-10T05:54:45.396Z,44.83
2019-04-10T05:57:27.013Z,44.37
2019-04-10T06:00:08.538Z,43.73
2019-04-10T06:02:50.309Z,44.60
2019-04-10T06:05:34.165Z,44.23
2019-04-10T06:08:16.119Z,44.97
2019-04-10T06:11:00.472Z,46.20
2019-04-10T06:13:41.686Z,43.93
2019-04-10T06:16:26.169Z,42.63
2019-04-10T06:19:07.837Z,43.77
2019-04-10T06:21:48.734Z,42.50
2019-04-10T06:24:30.420Z,44.17
2019-04-10T06:27:12.347Z,42.63
2019-04-10T06:29:56.586Z,43.33
2019-04-10T06:32:38.066Z,44.40
2019-04-10T06:35:21.885Z,43.87
2019-04-10T06:38:03.004Z,43.33
2019-04-10T06:40:44.541Z,41.77
2019-04-10T06:43:26.696Z,44.57
2019-04-10T06:46:08.372Z,42.57
2019-04-10T06:48:50.029Z,44.27
2019-04-10T06:51:31.350Z,43.03
2019-04-10T06:54:12.925Z,43.57
2019-04-10T06:56:54.517Z,42.43
2019-04-10T06:59:37.758Z,42.47
2019-04-10T07:02:24.631Z,41.70
2019-04-10T07:05:05.860Z,42.00
2019-04-10T07:07:51.358Z,41.43
2019-04-10T07:10:33.540Z,41.10
2019-04-10T07:13:11.764Z,41.93
2019-04-10T07:15:57.138Z,41.90
2019-04-10T07:18:40.186Z,41.67
2019-04-10T07:21:22.979Z,41.57
2019-04-10T07:24:06.762Z,41.47
2019-04-10T07:26:49.281Z,42.37
2019-04-10T07:29:31.093Z,40.07
2019-04-10T07:34:58.412Z,40.10
2019-04-10T07:37:38.713Z,42.27
2019-04-10T07:40:20.627Z,41.50
2019-04-10T07:43:02.235Z,41.00
2019-04-10T07:45:45.134Z,42.17
2019-04-10T07:48:27.171Z,43.40
2019-04-10T07:51:09.072Z,42.93
2019-04-10T07:53:51.218Z,41.13
2019-04-10T07:56:33.294Z,41.07
2019-04-10T07:59:14.652Z,41.70
2019-04-10T08:01:44.567Z,40.90
2019-04-10T08:04:14.697Z,39.90
2019-04-10T08:07:03.463Z,40.37
2019-04-10T08:09:52.226Z,41.60
2019-04-10T08:12:47.604Z,41.97
2019-04-10T08:15:33.568Z,43.53
2019-04-10T08:18:17.127Z,41.37
2019-04-10T08:21:08.541Z,43.17
2019-04-10T08:23:58.298Z,42.77
2019-04-10T08:26:49.178Z,42.20
2019-04-10T08:29:41.284Z,42.33
2019-04-10T08:32:30.255Z,43.07
2019-04-10T08:35:19.034Z,42.17
2019-04-10T08:38:07.953Z,40.43
2019-04-10T08:40:56.774Z,42.23
2019-04-10T08:43:45.967Z,41.77
2019-04-10T08:46:36.101Z,41.80
2019-04-10T08:49:18.307Z,42.17
2019-04-10T08:52:00.989Z,42.30
2019-04-10T08:54:42.560Z,43.93
2019-04-10T08:57:25.595Z,43.20
2019-04-10T09:00:06.624Z,42.17
2019-04-10T09:02:48.606Z,42.30
2019-04-10T09:05:29.989Z,41.47
2019-04-10T09:08:12.776Z,41.80
2019-04-10T09:10:54.550Z,41.73
2019-04-10T09:13:36.850Z,43.43
2019-04-10T09:16:18.677Z,41.27
2019-04-10T09:18:59.479Z,44.27
2019-04-10T09:24:23.792Z,42.70
2019-04-10T09:27:04.830Z,44.20
2019-04-10T09:29:56.132Z,43.40
2019-04-10T09:32:38.883Z,41.17
2019-04-10T09:35:20.626Z,41.67
2019-04-10T09:38:02.135Z,42.87
2019-04-10T09:43:45.517Z,41.80
2019-04-10T09:46:26.837Z,42.70
2019-04-10T09:49:08.850Z,42.00
2019-04-10T09:51:50.203Z,41.23
2019-04-10T09:54:32.887Z,40.80
2019-04-10T09:57:14.133Z,42.73
2019-04-10T09:59:56.713Z,42.03
2019-04-10T10:02:38.548Z,42.97
2019-04-10T10:05:20.304Z,50.33
2019-04-10T10:08:02.900Z,42.57
2019-04-10T10:10:45.001Z,42.90
2019-04-10T10:13:27.683Z,42.77
2019-04-10T10:16:10.311Z,43.67
2019-04-10T10:18:52.310Z,45.17
2019-04-10T10:21:34.565Z,44.77
2019-04-10T10:24:16.359Z,43.60
2019-04-10T10:27:01.809Z,41.30
2019-04-10T10:29:44.083Z,43.83
2019-04-10T10:32:26.492Z,44.83
2019-04-10T10:35:09.330Z,43.43
2019-04-10T10:37:50.575Z,42.80
2019-04-10T10:40:34.149Z,45.07
2019-04-10T10:43:18.384Z,41.80
2019-04-10T10:46:02.943Z,44.53
2019-04-10T10:48:46.379Z,44.77
2019-04-10T10:51:17.003Z,44.87
2019-04-10T10:54:06.459Z,46.23
2019-04-10T10:57:31.145Z,42.77
2019-04-10T11:00:27.232Z,44.37
2019-04-10T11:03:16.871Z,44.80
2019-04-10T11:06:06.634Z,45.83
2019-04-10T11:08:56.118Z,44.73
2019-04-10T11:14:54.056Z,43.90
2019-04-10T11:17:44.628Z,46.20
2019-04-10T11:20:33.999Z,45.93
2019-04-10T11:23:24.556Z,44.90
2019-04-10T11:26:18.838Z,45.67
2019-04-10T11:29:03.769Z,43.50
2019-04-10T11:31:53.604Z,45.53
2019-04-10T11:34:35.622Z,47.40
2019-04-10T11:37:19.261Z,45.50
2019-04-10T11:39:56.240Z,45.13
2019-04-10T11:42:26.541Z,44.60
2019-04-10T11:44:56.931Z,46.70
2019-04-10T11:47:47.490Z,43.57
2019-04-10T11:50:38.075Z,45.27
2019-04-10T11:53:27.166Z,46.00
2019-04-10T11:56:18.908Z,44.83
2019-04-10T11:59:09.280Z,46.40
2019-04-10T12:02:00.992Z,46.20
2019-04-10T12:04:53.886Z,45.90
2019-04-10T12:08:00.533Z,45.43
2019-04-10T12:13:18.364Z,41.20
2019-04-10T12:16:10.726Z,39.77
2019-04-10T12:18:59.279Z,38.73
2019-04-10T12:21:48.720Z,40.47
2019-04-10T12:24:38.407Z,41.13
2019-04-10T12:27:29.312Z,41.87
2019-04-10T12:30:20.223Z,39.77
2019-04-10T12:33:09.564Z,42.50
2019-04-10T12:35:51.134Z,41.30
2019-04-10T12:38:32.063Z,43.17
2019-04-10T12:41:13.162Z,43.60
2019-04-10T12:43:53.992Z,44.77
2019-04-10T12:46:35.178Z,46.77
2019-04-10T12:49:17.114Z,44.80
2019-04-10T12:51:58.552Z,44.20
2019-04-10T12:54:40.480Z,44.90
2019-04-10T12:57:23.068Z,45.27
2019-04-10T13:00:05.025Z,44.50
2019-04-10T13:02:47.017Z,45.17
2019-04-10T13:05:29.325Z,46.27
2019-04-10T13:08:19.164Z,47.03
2019-04-10T13:10:52.592Z,47.53
2019-04-10T13:13:34.017Z,47.10
2019-04-10T13:16:16.133Z,47.33
2019-04-10T13:18:57.204Z,46.17
2019-04-10T13:21:38.846Z,45.83
2019-04-10T13:24:20.005Z,46.00
2019-04-10T13:27:01.911Z,46.73
2019-04-10T13:29:43.105Z,46.07
2019-04-10T13:32:24.265Z,44.80
2019-04-10T13:35:06.044Z,47.43
2019-04-10T13:37:47.088Z,47.17
2019-04-10T13:40:28.409Z,46.03
2019-04-10T13:43:10.051Z,46.13
2019-04-10T13:45:52.075Z,45.93
2019-04-10T13:48:33.431Z,45.20
2019-04-10T13:51:15.052Z,46.20
2019-04-10T13:53:56.617Z,47.60
2019-04-10T13:56:37.413Z,46.10
2019-04-10T13:59:18.291Z,46.53
2019-04-10T14:02:00.561Z,45.47
2019-04-10T14:04:41.518Z,46.83
2019-04-10T14:07:24.907Z,46.60
2019-04-10T14:10:07.056Z,45.80
2019-04-10T14:12:49.341Z,48.63
2019-04-10T14:15:30.354Z,46.17
2019-04-10T14:18:12.307Z,46.37
2019-04-10T14:20:53.411Z,44.13
2019-04-10T14:23:35.300Z,45.37
2019-04-10T14:26:43.771Z,46.90
2019-04-10T14:29:20.634Z,46.17
2019-04-10T14:32:05.026Z,45.30
2019-04-10T14:34:47.066Z,46.63
2019-04-10T14:37:29.466Z,47.27
2019-04-10T14:40:11.676Z,47.10
2019-04-10T14:42:53.581Z,49.43
2019-04-10T14:45:37.317Z,47.17
2019-04-10T14:48:18.546Z,46.97
2019-04-10T14:50:59.852Z,48.77
2019-04-10T14:53:41.448Z,47.60
2019-04-10T14:56:22.328Z,47.47
2019-04-10T14:59:03.906Z,48.13
2019-04-10T15:01:44.613Z,47.20
2019-04-10T15:04:26.941Z,45.40
2019-04-10T15:07:08.049Z,46.37
2019-04-10T15:09:49.742Z,47.93
2019-04-10T15:12:32.193Z,46.70
2019-04-10T15:15:14.337Z,46.10
2019-04-10T15:17:56.107Z,47.93
2019-04-10T15:20:37.569Z,48.27
2019-04-10T15:23:20.364Z,48.20
2019-04-10T15:26:01.855Z,47.20
2019-04-10T15:28:43.595Z,46.77
2019-04-10T15:31:27.451Z,48.80
2019-04-10T15:34:08.333Z,49.23
2019-04-10T15:36:50.849Z,45.67
2019-04-10T15:39:35.707Z,48.10
2019-04-10T15:42:14.750Z,46.27
2019-04-10T15:44:56.597Z,47.27
2019-04-10T15:47:48.656Z,47.07
2019-04-10T15:50:20.362Z,47.40
2019-04-10T15:53:02.160Z,48.53
2019-04-10T15:55:43.327Z,48.83
2019-04-10T15:58:25.652Z,47.63
2019-04-10T16:01:08.276Z,49.80
2019-04-10T16:03:48.997Z,48.53
2019-04-10T16:06:31.397Z,49.30
2019-04-10T16:09:13.274Z,48.50
2019-04-10T16:12:14.515Z,48.37
2019-04-10T16:14:55.577Z,50.73
2019-04-10T16:20:33.649Z,52.83
2019-04-10T16:23:27.047Z,51.70
2019-04-10T16:26:08.941Z,52.20
2019-04-10T16:28:50.030Z,51.57
2019-04-10T16:31:31.892Z,50.93
2019-04-10T16:34:13.514Z,50.97
2019-04-10T16:36:55.184Z,52.53
2019-04-10T16:39:36.842Z,52.70
2019-04-10T16:42:19.001Z,51.97
2019-04-10T16:45:01.756Z,51.87
2019-04-10T16:47:44.003Z,53.13
2019-04-10T16:50:25.770Z,50.47
2019-04-10T16:53:07.579Z,53.30
2019-04-10T16:55:49.211Z,51.73
2019-04-10T16:58:30.407Z,50.57
2019-04-10T17:01:11.217Z,52.50
2019-04-10T17:03:50.941Z,50.03
2019-04-10T17:06:39.467Z,50.23
2019-04-10T17:12:23.369Z,51.07
2019-04-10T17:15:12.252Z,49.77
2019-04-10T17:18:03.142Z,49.97
2019-04-10T17:20:52.895Z,52.13
2019-04-10T17:23:42.858Z,52.90
2019-04-10T17:26:31.486Z,49.07
2019-04-10T17:29:20.868Z,49.17
2019-04-10T17:32:11.111Z,51.23
2019-04-10T17:35:00.524Z,50.57
2019-04-10T17:37:49.934Z,54.17
2019-04-10T17:40:47.637Z,49.53
2019-04-10T17:43:29.943Z,51.57
2019-04-10T17:46:19.846Z,49.60
2019-04-10T17:49:09.124Z,51.07
2019-04-10T17:52:00.084Z,51.77
2019-04-10T17:54:49.227Z,50.70
2019-04-10T17:57:42.866Z,53.90
2019-04-10T18:03:51.648Z,51.47
2019-04-10T18:06:15.725Z,51.70
2019-04-10T18:09:24.823Z,51.47
2019-04-10T18:12:14.238Z,50.90
2019-04-10T18:15:04.301Z,50.40
2019-04-10T18:17:53.453Z,50.97
2019-04-10T18:20:44.321Z,48.57
2019-04-10T18:23:37.471Z,47.73
2019-04-10T18:26:27.785Z,50.63
2019-04-10T18:29:17.010Z,54.27
2019-04-10T18:32:07.556Z,49.37
2019-04-10T18:34:57.050Z,49.37
2019-04-10T18:37:45.037Z,48.53
2019-04-10T18:40:33.604Z,51.57
2019-04-10T18:43:22.319Z,49.67
2019-04-10T18:46:14.716Z,51.23
2019-04-10T18:49:01.364Z,51.13
2019-04-10T18:51:50.136Z,48.87
2019-04-10T18:54:39.486Z,50.00
2019-04-10T18:57:30.491Z,48.40
2019-04-10T19:00:38.672Z,60.13
2019-04-10T19:09:24.395Z,49.70
2019-04-10T19:12:00.258Z,49.97
2019-04-10T19:14:41.161Z,48.40
2019-04-10T19:17:22.482Z,48.87
2019-04-10T19:20:05.900Z,48.73
2019-04-10T19:22:36.960Z,50.47
2019-04-10T19:28:30.123Z,48.93
2019-04-10T19:34:10.539Z,48.13
2019-04-10T19:36:59.223Z,48.23
2019-04-10T19:39:48.774Z,49.23
2019-04-10T19:42:39.616Z,49.20
2019-04-10T19:45:09.974Z,49.30
2019-04-10T19:48:01.187Z,47.43
2019-04-10T19:50:50.416Z,49.37
2019-04-10T19:53:39.540Z,48.70
2019-04-10T19:56:29.157Z,48.90
2019-04-10T19:59:18.698Z,48.23
2019-04-10T20:02:08.750Z,53.60
2019-04-10T20:04:59.071Z,51.07
2019-04-10T20:07:49.264Z,49.70
2019-04-10T20:10:21.262Z,50.60
2019-04-10T20:13:10.106Z,48.40
2019-04-10T20:15:59.165Z,50.63
2019-04-10T20:18:48.672Z,49.17
2019-04-10T20:21:38.136Z,48.83
2019-04-10T20:24:27.116Z,48.77
2019-04-10T20:27:18.177Z,49.13
2019-04-10T20:29:51.105Z,49.27
2019-04-10T20:35:11.827Z,48.73
2019-04-10T20:37:43.121Z,47.93
2019-04-10T20:40:32.003Z,48.83
2019-04-10T20:43:20.660Z,47.33
2019-04-10T20:49:07.676Z,47.23
2019-04-10T20:51:55.715Z,47.20
2019-04-10T20:54:46.774Z,47.87
2019-04-10T20:57:37.409Z,46.67
2019-04-10T21:00:46.793Z,47.67
2019-04-10T21:03:36.197Z,46.50
2019-04-10T21:06:17.613Z,46.90
2019-04-10T21:08:58.863Z,47.87
2019-04-10T21:11:40.417Z,46.13
2019-04-10T21:14:21.297Z,47.67
2019-04-10T21:17:03.097Z,49.20
2019-04-10T21:19:45.360Z,48.33
2019-04-10T21:22:26.481Z,47.93
2019-04-10T21:24:56.339Z,47.47
2019-04-10T21:27:48.482Z,48.97
2019-04-10T21:30:54.357Z,47.23
2019-04-10T21:34:01.839Z,47.07
2019-04-10T21:36:51.219Z,50.03
2019-04-10T21:39:41.547Z,50.63
2019-04-10T21:42:31.584Z,47.67
2019-04-10T21:45:22.080Z,49.93
2019-04-10T21:47:52.424Z,49.00
2019-04-10T21:50:41.792Z,49.53
2019-04-10T21:53:32.580Z,48.67
2019-04-10T21:56:21.337Z,49.30
2019-04-10T21:59:11.013Z,47.53
2019-04-10T22:02:00.308Z,50.17
2019-04-10T22:04:49.793Z,49.20
2019-04-10T22:07:58.818Z,47.47
2019-04-10T22:13:57.385Z,49.40
2019-04-10T22:16:46.347Z,50.00
2019-04-10T22:19:37.998Z,47.57
2019-04-10T22:22:26.987Z,50.20
2019-04-10T22:25:15.707Z,48.17
2019-04-10T22:28:04.486Z,48.80
2019-04-10T22:30:53.133Z,49.80
2019-04-10T22:33:42.686Z,48.90
2019-04-10T22:36:33.137Z,48.07
2019-04-10T22:39:23.082Z,50.10
2019-04-10T22:48:45.729Z,47.97
2019-04-10T22:51:35.647Z,47.10
2019-04-10T22:54:24.229Z,48.73
2019-04-10T22:57:12.805Z,47.70
2019-04-10T23:00:01.381Z,49.77
2019-04-10T23:02:50.613Z,47.80
2019-04-10T23:05:40.638Z,47.60
2019-04-10T23:08:23.177Z,47.97
2019-04-10T23:11:05.620Z,47.70
2019-04-10T23:13:47.981Z,44.23
2019-04-10T23:16:30.353Z,45.07
2019-04-10T23:19:11.991Z,42.27
2019-04-10T23:21:52.829Z,38.93
2019-04-10T23:24:34.313Z,37.63
2019-04-10T23:27:15.650Z,37.00
2019-04-10T23:29:57.226Z,36.73
2019-04-10T23:32:27.077Z,36.40
2019-04-10T23:35:15.682Z,34.27
2019-04-10T23:38:04.398Z,32.53
2019-04-10T23:40:53.486Z,30.67
2019-04-10T23:43:44.034Z,28.70
2019-04-10T23:46:34.616Z,29.07
2019-04-10T23:49:23.733Z,27.93
2019-04-10T23:52:12.324Z,25.30
2019-04-10T23:55:01.806Z,26.07
2019-04-10T23:57:51.697Z,23.87
